createdAt,value
2018-12-29T00:01:48.234Z,25.17
2018-12-29T00:04:17.642Z,20.43
2018-12-29T00:06:47.037Z,24.23
2018-12-29T00:09:16.499Z,32.47
2018-12-29T00:11:45.819Z,26.97
2018-12-29T00:14:15.208Z,24.87
2018-12-29T00:16:44.578Z,26.20
2018-12-29T00:19:13.967Z,36.33
2018-12-29T00:21:43.321Z,30.03
2018-12-29T00:24:12.683Z,30.33
2018-12-29T00:26:42.116Z,28.27
2018-12-29T00:29:11.475Z,27.37
2018-12-29T00:31:40.850Z,33.17
2018-12-29T00:34:10.198Z,31.13
2018-12-29T00:36:39.622Z,32.00
2018-12-29T00:39:08.985Z,29.07
2018-12-29T00:41:38.350Z,29.43
2018-12-29T00:44:07.684Z,28.83
2018-12-29T00:46:37.052Z,32.70
2018-12-29T00:49:06.427Z,36.33
2018-12-29T00:51:35.772Z,36.27
2018-12-29T00:54:05.113Z,29.57
2018-12-29T00:56:34.626Z,33.03
2018-12-29T00:59:06.886Z,36.60
2018-12-29T01:01:36.231Z,34.63
2018-12-29T01:04:05.559Z,29.57
2018-12-29T01:06:34.897Z,33.83
2018-12-29T01:09:06.297Z,34.80
2018-12-29T01:11:35.669Z,27.90
2018-12-29T01:14:06.643Z,29.20
2018-12-29T01:16:36.283Z,34.57
2018-12-29T01:19:05.634Z,35.90
2018-12-29T01:21:34.985Z,32.10
2018-12-29T01:24:04.274Z,38.40
2018-12-29T01:26:33.625Z,35.93
2018-12-29T01:29:02.947Z,33.97
2018-12-29T01:31:32.268Z,31.87
2018-12-29T01:34:01.646Z,38.63
2018-12-29T01:36:30.977Z,30.90
2018-12-29T01:39:00.511Z,37.00
2018-12-29T01:41:29.809Z,31.40
2018-12-29T01:44:01.949Z,39.97
2018-12-29T01:46:31.308Z,32.23
2018-12-29T01:49:00.640Z,30.33
2018-12-29T01:51:29.955Z,32.70
2018-12-29T01:53:59.294Z,26.27
2018-12-29T01:56:28.607Z,25.97
2018-12-29T01:58:57.994Z,35.50
2018-12-29T02:01:27.281Z,25.90
2018-12-29T02:03:56.640Z,25.37
2018-12-29T02:06:25.947Z,30.90
2018-12-29T02:08:55.287Z,31.20
2018-12-29T02:11:24.618Z,33.10
2018-12-29T02:13:53.965Z,35.83
2018-12-29T02:16:23.268Z,39.03
2018-12-29T02:18:52.587Z,41.80
2018-12-29T02:21:21.935Z,29.43
2018-12-29T02:23:51.312Z,32.93
2018-12-29T02:26:20.656Z,28.37
2018-12-29T02:28:49.965Z,37.47
2018-12-29T02:31:19.313Z,41.27
2018-12-29T02:33:48.644Z,31.23
2018-12-29T02:36:17.969Z,38.33
2018-12-29T02:38:47.280Z,41.67
2018-12-29T02:41:16.637Z,37.23
2018-12-29T02:43:45.939Z,37.47
2018-12-29T02:46:15.285Z,32.57
2018-12-29T02:48:44.590Z,34.83
2018-12-29T02:51:13.921Z,26.83
2018-12-29T02:53:43.247Z,31.33
2018-12-29T02:56:12.602Z,31.70
2018-12-29T02:58:42.006Z,26.07
2018-12-29T03:01:11.355Z,27.43
2018-12-29T03:03:40.725Z,26.17
2018-12-29T03:06:10.065Z,30.60
2018-12-29T03:08:39.401Z,27.77
2018-12-29T03:11:08.760Z,36.37
2018-12-29T03:13:38.179Z,36.40
2018-12-29T03:16:07.549Z,31.87
2018-12-29T03:18:36.904Z,39.13
2018-12-29T03:21:06.215Z,36.77
2018-12-29T03:23:35.536Z,33.93
2018-12-29T03:26:04.837Z,36.03
2018-12-29T03:28:34.162Z,31.13
2018-12-29T03:31:03.546Z,29.77
2018-12-29T03:33:32.889Z,33.23
2018-12-29T03:36:02.205Z,33.53
2018-12-29T03:38:31.566Z,31.27
2018-12-29T03:41:01.053Z,36.13
2018-12-29T03:43:30.387Z,37.43
2018-12-29T03:45:59.738Z,35.93
2018-12-29T03:48:29.130Z,34.80
2018-12-29T03:50:58.433Z,30.93
2018-12-29T03:53:27.761Z,34.73
2018-12-29T03:55:57.150Z,31.67
2018-12-29T03:58:26.496Z,39.03
2018-12-29T04:00:55.817Z,37.33
2018-12-29T04:03:25.176Z,34.57
2018-12-29T04:05:54.454Z,32.83
2018-12-29T04:08:23.792Z,26.23
2018-12-29T04:10:53.067Z,37.00
2018-12-29T04:13:22.398Z,32.57
2018-12-29T04:15:58.033Z,29.13
2018-12-29T04:18:22.843Z,29.87
2018-12-29T04:20:52.170Z,37.77
2018-12-29T04:23:21.521Z,32.23
2018-12-29T04:25:52.920Z,30.87
2018-12-29T04:28:22.269Z,28.70
2018-12-29T04:30:51.658Z,27.97
2018-12-29T04:33:20.969Z,29.83
2018-12-29T04:35:50.389Z,24.17
2018-12-29T04:38:19.724Z,30.63
2018-12-29T04:40:49.080Z,31.93
2018-12-29T04:43:18.396Z,29.80
2018-12-29T04:45:47.752Z,33.83
2018-12-29T04:48:17.072Z,33.20
2018-12-29T04:50:46.410Z,29.50
2018-12-29T04:53:15.713Z,28.87
2018-12-29T04:55:45.055Z,27.70
2018-12-29T04:58:14.392Z,34.73
2018-12-29T05:00:43.753Z,31.33
2018-12-29T05:03:13.104Z,28.57
2018-12-29T05:05:42.433Z,31.37
2018-12-29T05:08:11.780Z,25.90
2018-12-29T05:10:41.081Z,29.73
2018-12-29T05:13:10.441Z,31.20
2018-12-29T05:15:39.736Z,27.03
2018-12-29T05:18:09.076Z,26.77
2018-12-29T05:20:38.392Z,22.33
2018-12-29T05:23:07.736Z,26.53
2018-12-29T05:25:37.047Z,22.50
2018-12-29T05:28:06.363Z,29.53
2018-12-29T05:30:35.687Z,24.00
2018-12-29T05:33:05.029Z,27.40
2018-12-29T05:35:34.351Z,30.90
2018-12-29T05:38:03.667Z,28.40
2018-12-29T05:40:32.979Z,27.33
2018-12-29T05:43:02.330Z,30.20
2018-12-29T05:45:31.637Z,29.30
2018-12-29T05:48:01.021Z,30.27
2018-12-29T05:50:30.328Z,29.70
2018-12-29T05:52:59.615Z,25.13
2018-12-29T05:55:28.979Z,34.53
2018-12-29T05:57:58.307Z,31.47
2018-12-29T06:00:27.609Z,28.50
2018-12-29T06:02:56.935Z,35.07
2018-12-29T06:05:26.287Z,25.07
2018-12-29T06:07:55.628Z,29.00
2018-12-29T06:10:24.944Z,30.77
2018-12-29T06:12:54.264Z,32.77
2018-12-29T06:15:23.622Z,27.27
2018-12-29T06:17:53.005Z,33.40
2018-12-29T06:20:22.327Z,33.83
2018-12-29T06:22:51.655Z,29.13
2018-12-29T06:25:21.016Z,34.10
2018-12-29T06:27:50.497Z,29.63
2018-12-29T06:30:19.946Z,34.23
2018-12-29T06:32:50.552Z,23.63
2018-12-29T06:35:20.009Z,29.20
2018-12-29T06:37:49.376Z,30.97
2018-12-29T06:40:18.757Z,37.40
2018-12-29T06:42:48.068Z,31.13
2018-12-29T06:45:17.425Z,35.63
2018-12-29T06:47:46.798Z,31.77
2018-12-29T06:50:16.172Z,30.80
2018-12-29T06:52:45.596Z,31.70
2018-12-29T06:55:14.966Z,39.73
2018-12-29T06:57:44.319Z,33.07
2018-12-29T07:00:13.776Z,36.73
2018-12-29T07:02:43.125Z,40.20
2018-12-29T07:05:12.516Z,34.83
2018-12-29T07:07:41.880Z,42.00
2018-12-29T07:10:11.381Z,31.57
2018-12-29T07:12:40.734Z,39.03
2018-12-29T07:15:10.060Z,36.90
2018-12-29T07:17:39.387Z,32.17
2018-12-29T07:20:08.733Z,40.70
2018-12-29T07:22:38.066Z,41.63
2018-12-29T07:25:07.388Z,33.50
2018-12-29T07:27:36.728Z,37.60
2018-12-29T07:30:06.804Z,43.60
2018-12-29T07:32:36.612Z,37.23
2018-12-29T07:35:06.059Z,44.03
2018-12-29T07:37:35.422Z,30.67
2018-12-29T07:40:04.930Z,39.57
2018-12-29T07:42:34.407Z,43.63
2018-12-29T07:45:03.993Z,40.97
2018-12-29T07:47:33.427Z,36.33
2018-12-29T07:50:02.878Z,36.17
2018-12-29T07:52:32.223Z,34.73
2018-12-29T07:55:01.616Z,39.07
2018-12-29T07:57:31.068Z,36.77
2018-12-29T08:00:00.467Z,34.43
2018-12-29T08:02:29.934Z,40.17
2018-12-29T08:04:59.482Z,41.10
2018-12-29T08:07:31.439Z,38.50
2018-12-29T08:10:00.858Z,45.13
2018-12-29T08:12:30.331Z,44.60
2018-12-29T08:14:59.742Z,34.00
2018-12-29T08:17:29.122Z,37.43
2018-12-29T08:19:58.511Z,42.30
2018-12-29T08:22:27.842Z,42.27
2018-12-29T08:24:57.262Z,35.93
2018-12-29T08:27:26.709Z,40.67
2018-12-29T08:29:56.137Z,31.23
2018-12-29T08:32:25.560Z,36.97
2018-12-29T08:34:54.885Z,37.97
2018-12-29T08:37:24.263Z,38.20
2018-12-29T08:39:53.668Z,65.62
2018-12-29T08:42:23.173Z,36.30
2018-12-29T08:44:52.537Z,41.90
2018-12-29T08:47:21.864Z,64.40
2018-12-29T08:49:51.212Z,44.63
2018-12-29T08:52:20.548Z,45.60
2018-12-29T08:54:49.912Z,37.53
2018-12-29T08:57:19.243Z,38.87
2018-12-29T08:59:48.549Z,44.40
2018-12-29T09:02:17.917Z,40.57
2018-12-29T09:04:47.261Z,45.67
2018-12-29T09:07:16.633Z,37.63
2018-12-29T09:09:45.941Z,40.03
2018-12-29T09:12:15.275Z,38.67
2018-12-29T09:14:44.582Z,42.60
2018-12-29T09:17:13.907Z,43.40
2018-12-29T09:19:43.213Z,40.93
2018-12-29T09:22:20.452Z,43.07
2018-12-29T09:24:49.748Z,36.73
2018-12-29T09:27:19.126Z,41.63
2018-12-29T09:29:48.430Z,40.50
2018-12-29T09:32:20.680Z,38.20
2018-12-29T09:34:51.406Z,43.17
2018-12-29T09:37:20.720Z,42.90
2018-12-29T09:39:51.123Z,38.97
2018-12-29T09:42:20.517Z,43.20
2018-12-29T09:44:49.947Z,34.17
2018-12-29T09:47:19.838Z,43.33
2018-12-29T09:49:49.453Z,39.10
2018-12-29T09:52:18.863Z,38.67
2018-12-29T09:54:48.333Z,42.33
2018-12-29T09:57:18.563Z,41.37
2018-12-29T09:59:48.020Z,46.03
2018-12-29T10:02:17.333Z,38.03
2018-12-29T10:04:46.667Z,41.13
2018-12-29T10:07:15.982Z,41.03
2018-12-29T10:09:45.351Z,42.53
2018-12-29T10:12:14.689Z,46.57
2018-12-29T10:14:46.584Z,43.60
2018-12-29T10:17:15.920Z,42.43
2018-12-29T10:19:45.399Z,41.50
2018-12-29T10:22:14.765Z,37.67
2018-12-29T10:24:44.076Z,37.17
2018-12-29T10:27:13.403Z,40.83
2018-12-29T10:29:42.716Z,40.63
2018-12-29T10:32:12.013Z,43.90
2018-12-29T10:34:41.353Z,42.20
2018-12-29T10:37:10.675Z,40.83
2018-12-29T10:39:40.004Z,42.97
2018-12-29T10:42:09.355Z,41.73
2018-12-29T10:44:38.689Z,42.13
2018-12-29T10:47:08.004Z,39.43
2018-12-29T10:49:37.337Z,43.10
2018-12-29T10:52:09.725Z,41.60
2018-12-29T10:54:39.074Z,42.60
2018-12-29T10:57:08.403Z,41.33
2018-12-29T10:59:37.906Z,42.77
2018-12-29T11:02:09.368Z,41.13
2018-12-29T11:04:38.803Z,44.80
2018-12-29T11:07:08.232Z,43.63
2018-12-29T11:09:37.624Z,43.50
2018-12-29T11:12:07.032Z,39.23
2018-12-29T11:14:36.543Z,39.90
2018-12-29T11:17:06.023Z,47.27
2018-12-29T11:19:35.570Z,41.27
2018-12-29T11:22:05.021Z,45.40
2018-12-29T11:24:34.453Z,47.10
2018-12-29T11:27:03.883Z,45.57
2018-12-29T11:29:33.387Z,44.07
2018-12-29T11:32:03.890Z,41.63
2018-12-29T11:34:33.301Z,43.50
2018-12-29T11:37:02.677Z,43.13
2018-12-29T11:39:32.133Z,40.60
2018-12-29T11:42:01.678Z,37.93
2018-12-29T11:44:32.746Z,43.27
2018-12-29T11:47:02.139Z,43.87
2018-12-29T11:49:33.127Z,42.00
2018-12-29T11:52:02.659Z,44.40
2018-12-29T11:54:32.321Z,40.33
2018-12-29T11:57:01.658Z,38.60
2018-12-29T11:59:31.028Z,42.27
2018-12-29T12:02:00.437Z,37.63
2018-12-29T12:04:30.018Z,37.33
2018-12-29T12:06:59.726Z,43.67
2018-12-29T12:09:30.348Z,35.77
2018-12-29T12:11:59.849Z,42.00
2018-12-29T12:14:32.124Z,38.10
2018-12-29T12:17:01.646Z,40.53
2018-12-29T12:19:35.666Z,35.60
2018-12-29T12:22:02.321Z,36.33
2018-12-29T12:24:31.924Z,36.70
2018-12-29T12:27:28.837Z,33.30
2018-12-29T12:29:37.338Z,33.40
2018-12-29T12:32:06.726Z,34.27
2018-12-29T12:34:36.127Z,36.90
2018-12-29T12:37:05.534Z,33.13
2018-12-29T12:39:35.072Z,35.03
2018-12-29T12:42:04.465Z,32.90
2018-12-29T12:44:36.184Z,33.27
2018-12-29T12:47:05.740Z,32.53
2018-12-29T12:49:35.125Z,33.47
2018-12-29T12:52:04.553Z,31.33
2018-12-29T12:54:34.019Z,29.10
2018-12-29T12:57:04.727Z,31.87
2018-12-29T12:59:34.501Z,31.17
2018-12-29T13:02:04.084Z,32.07
2018-12-29T13:04:33.591Z,31.23
2018-12-29T13:07:03.057Z,31.03
2018-12-29T13:09:32.520Z,31.13
2018-12-29T13:12:01.957Z,31.03
2018-12-29T13:14:31.502Z,30.07
2018-12-29T13:17:03.342Z,30.00
2018-12-29T13:19:32.701Z,28.33
2018-12-29T13:22:02.183Z,30.20
2018-12-29T13:24:31.568Z,31.60
2018-12-29T13:27:00.896Z,32.17
2018-12-29T13:29:30.370Z,30.73
2018-12-29T13:31:59.841Z,31.07
2018-12-29T13:34:29.223Z,30.50
2018-12-29T13:36:58.596Z,30.70
2018-12-29T13:39:30.685Z,31.53
2018-12-29T13:42:00.024Z,30.50
2018-12-29T13:44:29.390Z,30.97
2018-12-29T13:46:58.835Z,31.37
2018-12-29T13:49:28.232Z,29.77
2018-12-29T13:51:57.951Z,31.73
2018-12-29T13:54:27.484Z,31.70
2018-12-29T13:56:56.939Z,28.27
2018-12-29T13:59:26.539Z,29.80
2018-12-29T14:01:56.170Z,28.13
2018-12-29T14:04:25.904Z,26.37
2018-12-29T14:06:55.912Z,27.07
2018-12-29T14:09:25.593Z,27.77
2018-12-29T14:11:55.188Z,27.57
2018-12-29T14:14:24.949Z,26.77
2018-12-29T14:16:54.405Z,25.77
2018-12-29T14:19:23.902Z,26.57
2018-12-29T14:21:53.240Z,27.97
2018-12-29T14:24:22.618Z,25.67
2018-12-29T14:26:52.228Z,25.27
2018-12-29T14:29:21.723Z,25.13
2018-12-29T14:31:51.040Z,25.43
2018-12-29T14:34:20.510Z,25.47
2018-12-29T14:36:49.939Z,25.00
2018-12-29T14:39:19.250Z,23.10
2018-12-29T14:41:50.491Z,23.40
2018-12-29T14:44:20.345Z,25.53
2018-12-29T14:46:49.868Z,24.47
2018-12-29T14:49:19.728Z,24.33
2018-12-29T14:51:49.245Z,22.67
2018-12-29T14:54:18.645Z,21.87
2018-12-29T14:56:48.159Z,23.17
2018-12-29T14:59:17.689Z,22.67
2018-12-29T15:01:47.208Z,30.57
2018-12-29T15:04:16.681Z,22.17
2018-12-29T15:06:46.485Z,19.27
2018-12-29T15:09:19.371Z,21.87
2018-12-29T15:11:48.987Z,21.10
2018-12-29T15:14:18.586Z,20.47
2018-12-29T15:16:50.080Z,20.57
2018-12-29T15:19:19.618Z,17.80
2018-12-29T15:21:49.191Z,17.63
2018-12-29T15:24:18.712Z,16.27
2018-12-29T15:26:48.175Z,16.90
2018-12-29T15:29:18.091Z,16.17
2018-12-29T15:31:47.630Z,16.53
2018-12-29T15:34:17.502Z,16.33
2018-12-29T15:36:47.407Z,16.17
2018-12-29T15:39:17.471Z,17.27
2018-12-29T15:41:47.665Z,15.93
2018-12-29T15:44:17.837Z,16.13
2018-12-29T15:46:47.594Z,14.90
2018-12-29T15:49:17.349Z,14.40
2018-12-29T15:51:47.047Z,14.57
2018-12-29T15:54:17.057Z,14.30
2018-12-29T15:56:48.642Z,18.17
2018-12-29T15:59:18.418Z,14.50
2018-12-29T16:01:47.959Z,14.37
2018-12-29T16:04:17.711Z,15.70
2018-12-29T16:08:13.596Z,14.87
2018-12-29T16:09:19.184Z,15.33
2018-12-29T16:11:49.292Z,16.67
2018-12-29T16:14:21.153Z,16.23
2018-12-29T16:16:51.151Z,16.53
2018-12-29T16:19:20.802Z,15.60
2018-12-29T16:21:50.453Z,16.13
2018-12-29T16:24:20.281Z,16.23
2018-12-29T16:26:49.932Z,18.30
2018-12-29T16:29:19.517Z,17.40
2018-12-29T16:31:49.217Z,21.50
2018-12-29T16:34:18.826Z,21.23
2018-12-29T16:36:48.744Z,19.23
2018-12-29T16:39:18.402Z,19.17
2018-12-29T16:41:48.117Z,16.30
2018-12-29T16:44:17.816Z,20.20
2018-12-29T16:46:47.495Z,21.87
2018-12-29T16:49:17.429Z,20.60
2018-12-29T16:51:47.011Z,20.47
2018-12-29T16:54:16.436Z,21.47
2018-12-29T16:56:48.773Z,21.10
2018-12-29T16:59:18.245Z,20.57
2018-12-29T17:01:47.692Z,19.87
2018-12-29T17:04:17.148Z,22.17
2018-12-29T17:06:46.808Z,17.60
2018-12-29T17:09:16.586Z,20.87
2018-12-29T17:11:52.456Z,23.03
2018-12-29T17:14:28.391Z,23.53
2018-12-29T17:17:05.231Z,22.13
2018-12-29T17:19:34.942Z,28.17
2018-12-29T17:22:04.393Z,28.77
2018-12-29T17:24:33.847Z,28.10
2018-12-29T17:27:03.664Z,26.00
2018-12-29T17:29:33.150Z,26.53
2018-12-29T17:32:02.569Z,26.40
2018-12-29T17:34:31.965Z,26.03
2018-12-29T17:37:01.401Z,26.17
2018-12-29T17:39:30.709Z,25.53
2018-12-29T17:42:00.125Z,26.77
2018-12-29T17:44:29.603Z,30.07
2018-12-29T17:46:59.033Z,28.57
2018-12-29T17:49:28.410Z,29.27
2018-12-29T17:51:58.147Z,29.10
2018-12-29T17:54:27.603Z,31.40
2018-12-29T17:56:57.053Z,29.13
2018-12-29T17:59:26.480Z,32.20
2018-12-29T18:01:55.950Z,32.87
2018-12-29T18:04:25.428Z,33.90
2018-12-29T18:06:54.939Z,31.40
2018-12-29T18:09:24.416Z,34.10
2018-12-29T18:11:54.207Z,37.30
2018-12-29T18:14:23.744Z,33.03
2018-12-29T18:16:53.175Z,34.83
2018-12-29T18:19:22.654Z,32.40
2018-12-29T18:21:53.336Z,32.67
2018-12-29T18:24:22.774Z,33.93
2018-12-29T18:26:52.224Z,32.50
2018-12-29T18:29:21.693Z,31.63
2018-12-29T18:31:51.658Z,32.40
2018-12-29T18:34:21.162Z,31.10
2018-12-29T18:36:50.651Z,30.83
2018-12-29T18:39:20.170Z,31.47
2018-12-29T18:41:49.698Z,29.60
2018-12-29T18:44:19.127Z,31.23
2018-12-29T18:46:49.077Z,32.50
2018-12-29T18:49:18.528Z,29.80
2018-12-29T18:51:47.973Z,28.33
2018-12-29T18:54:32.650Z,27.77
2018-12-29T18:57:02.148Z,26.40
2018-12-29T18:59:31.626Z,26.77
2018-12-29T19:02:01.078Z,26.97
2018-12-29T19:04:30.485Z,24.57
2018-12-29T19:07:01.304Z,23.80
2018-12-29T19:09:39.366Z,23.07
2018-12-29T19:12:11.295Z,20.90
2018-12-29T19:14:40.913Z,22.20
2018-12-29T19:17:10.371Z,19.87
2018-12-29T19:19:46.271Z,19.23
2018-12-29T19:22:11.342Z,18.23
2018-12-29T19:24:40.813Z,13.83
2018-12-29T19:27:12.947Z,8.73
2018-12-29T19:29:42.845Z,7.90
2018-12-29T19:32:12.604Z,6.27
2018-12-29T19:34:42.316Z,5.00
2018-12-29T19:37:12.100Z,4.40
2018-12-29T19:39:41.940Z,4.10
2018-12-29T19:42:11.398Z,4.90
2018-12-29T19:44:40.874Z,4.57
2018-12-29T19:47:10.592Z,4.73
2018-12-29T19:49:40.565Z,6.47
2018-12-29T19:52:10.554Z,4.17
2018-12-29T19:54:40.008Z,3.40
2018-12-29T19:57:10.827Z,3.00
2018-12-29T19:59:40.910Z,2.80
2018-12-29T20:02:10.314Z,3.77
2018-12-29T20:04:39.763Z,3.13
2018-12-29T20:07:09.761Z,3.53
2018-12-29T20:21:44.499Z,3.27
2018-12-29T20:24:17.091Z,3.23
2018-12-29T20:26:48.540Z,3.40
2018-12-29T20:29:18.100Z,3.70
2018-12-29T20:31:47.529Z,2.70
2018-12-29T20:34:16.946Z,2.70
2018-12-29T20:36:46.827Z,3.33
2018-12-29T20:39:17.348Z,3.93
2018-12-29T20:41:46.860Z,3.90
2018-12-29T20:44:16.222Z,3.87
2018-12-29T20:46:48.692Z,4.17
2018-12-29T20:49:29.521Z,2.60
2018-12-29T20:51:59.059Z,3.30
2018-12-29T20:54:28.540Z,3.63
2018-12-29T20:57:03.169Z,3.27
2018-12-29T20:59:32.909Z,3.67
2018-12-29T21:02:02.401Z,4.17
2018-12-29T21:04:31.833Z,4.30
2018-12-29T21:07:03.380Z,4.20
2018-12-29T21:09:32.855Z,4.13
2018-12-29T21:12:02.659Z,3.73
2018-12-29T21:14:32.107Z,3.50
2018-12-29T21:17:03.991Z,4.83
2018-12-29T21:19:33.333Z,4.43
2018-12-29T21:22:02.814Z,4.07
2018-12-29T21:24:32.494Z,4.33
2018-12-29T21:27:02.029Z,4.63
2018-12-29T21:29:31.521Z,3.87
2018-12-29T21:32:01.063Z,4.53
2018-12-29T21:34:30.450Z,3.87
2018-12-29T21:37:00.264Z,4.00
2018-12-29T21:39:29.684Z,4.40
2018-12-29T21:41:59.245Z,4.20
2018-12-29T21:44:28.709Z,3.90
2018-12-29T21:46:58.138Z,4.10
2018-12-29T21:49:27.709Z,3.73
2018-12-29T21:51:57.139Z,4.73
2018-12-29T21:54:26.671Z,3.70
2018-12-29T21:56:56.096Z,4.47
2018-12-29T21:59:25.541Z,3.63
2018-12-29T22:01:58.988Z,4.40
2018-12-29T22:04:28.475Z,5.33
2018-12-29T22:06:57.932Z,5.60
2018-12-29T22:09:27.355Z,4.00
2018-12-29T22:11:56.795Z,5.13
2018-12-29T22:14:26.291Z,3.67
2018-12-29T22:16:56.128Z,3.50
2018-12-29T22:19:25.542Z,4.47
2018-12-29T22:21:54.938Z,4.40
2018-12-29T22:24:24.339Z,3.63
2018-12-29T22:26:53.675Z,4.53
2018-12-29T22:29:23.141Z,4.27
2018-12-29T22:31:52.617Z,4.07
2018-12-29T22:34:22.057Z,4.43
2018-12-29T22:36:54.234Z,3.67
2018-12-29T22:39:23.821Z,4.27
2018-12-29T22:41:53.241Z,3.97
2018-12-29T22:44:22.687Z,4.73
2018-12-29T22:46:56.269Z,4.33
2018-12-29T22:49:28.662Z,3.50
2018-12-29T22:52:03.374Z,4.80
2018-12-29T22:54:31.431Z,4.67
2018-12-29T22:57:00.928Z,5.07
2018-12-29T22:59:30.403Z,3.70
2018-12-29T23:01:59.828Z,3.67
2018-12-29T23:04:29.327Z,5.03
2018-12-29T23:07:00.498Z,4.70
2018-12-29T23:09:30.076Z,5.37
2018-12-29T23:11:59.861Z,3.97
2018-12-29T23:14:29.257Z,4.33
2018-12-29T23:16:59.094Z,3.70
2018-12-29T23:19:28.529Z,4.27
2018-12-29T23:21:59.137Z,3.50
2018-12-29T23:24:28.612Z,4.27
2018-12-29T23:26:58.035Z,4.00
2018-12-29T23:29:27.503Z,5.33
2018-12-29T23:31:57.093Z,3.73
2018-12-29T23:34:26.651Z,4.23
2018-12-29T23:36:57.342Z,3.93
2018-12-29T23:39:26.814Z,3.87
2018-12-29T23:41:56.393Z,2.80
2018-12-29T23:44:25.819Z,4.10
2018-12-29T23:46:55.309Z,3.50
2018-12-29T23:49:25.195Z,7.20
2018-12-29T23:51:54.946Z,4.07
2018-12-29T23:54:38.679Z,3.97
2018-12-29T23:57:13.723Z,4.47
2018-12-29T23:59:46.228Z,3.93
